Time;durP1;ratioP1;P1;durP2;ratioP2;P2;SDS_P1;SDS_P2;PMS_P1;PMS_P2;Temp;Humidity;BMP_temperature;BMP_pressure;BME280_temperature;BME280_humidity;BME280_pressure;Samples;Min_cycle;Max_cycle;Signal;HPM_P1;HPM_P2
2024/01/11 00:00:35;;;;;;;16.33;8.75;;;;;;;17.72;31.89;103082.94;4970818;28;20039;-69
2024/01/11 00:03:01;;;;;;;12.90;8.68;;;;;;;17.67;32.08;103071.75;4970084;28;20034;-72
2024/01/11 00:05:26;;;;;;;13.00;8.07;;;;;;;17.76;32.25;103090.66;4971083;28;20065;-72
2024/01/11 00:07:51;;;;;;;15.60;8.23;;;;;;;17.67;31.91;103072.59;4971129;28;20038;-71
2024/01/11 00:10:17;;;;;;;13.13;8.45;;;;;;;17.71;32.17;103081.25;4970264;28;20476;-71
2024/01/11 00:12:42;;;;;;;14.50;7.70;;;;;;;17.72;32.17;103083.81;4969321;28;20058;-71
2024/01/11 00:15:08;;;;;;;16.15;8.70;;;;;;;17.67;31.92;103077.88;4969169;28;20093;-71
2024/01/11 00:17:33;;;;;;;12.25;7.82;;;;;;;17.60;31.94;103071.19;4970186;28;20035;-70
2024/01/11 00:19:58;;;;;;;13.38;8.13;;;;;;;17.62;31.92;103074.59;4969658;28;20043;-70
2024/01/11 00:22:24;;;;;;;13.13;8.57;;;;;;;17.68;32.15;103090.16;4970043;28;20069;-70
2024/01/11 00:24:49;;;;;;;14.82;8.63;;;;;;;17.67;31.92;103098.97;4970311;28;20042;-70
2024/01/11 00:27:15;;;;;;;14.85;8.18;;;;;;;17.57;32.13;103082.69;4970719;28;20042;-71
2024/01/11 00:29:40;;;;;;;13.77;8.05;;;;;;;17.58;32.20;103089.69;4970298;28;20030;-71
2024/01/11 00:32:05;;;;;;;13.15;8.18;;;;;;;17.63;31.91;103088.66;4970196;28;20050;-71
2024/01/11 00:34:31;;;;;;;16.73;8.73;;;;;;;17.51;31.58;103074.22;4970407;28;20121;-71
2024/01/11 00:36:56;;;;;;;15.57;8.32;;;;;;;17.58;31.90;103083.59;4970070;28;20034;-70
2024/01/11 00:39:21;;;;;;;12.48;8.02;;;;;;;17.57;31.88;103080.06;4970103;28;20041;-71
2024/01/11 00:41:47;;;;;;;13.55;8.35;;;;;;;17.57;32.22;103084.50;4970014;28;20034;-70
2024/01/11 00:44:12;;;;;;;13.40;8.30;;;;;;;17.55;31.83;103086.34;4969594;28;20126;-71
2024/01/11 00:46:38;;;;;;;15.10;8.90;;;;;;;17.54;31.87;103082.00;4969875;28;20198;-71
2024/01/11 00:49:03;;;;;;;15.23;8.25;;;;;;;17.53;31.96;103082.91;4969998;28;20114;-71
2024/01/11 00:51:29;;;;;;;12.68;7.75;;;;;;;17.44;32.18;103068.34;4970078;28;20034;-70
2024/01/11 00:53:54;;;;;;;13.90;8.70;;;;;;;17.45;31.90;103067.44;4969897;28;20039;-71
2024/01/11 00:56:20;;;;;;;12.52;8.40;;;;;;;17.45;31.81;103080.63;4969610;28;20522;-70
2024/01/11 00:58:45;;;;;;;12.45;7.63;;;;;;;17.45;31.86;103087.66;4969729;28;20034;-71
2024/01/11 01:01:11;;;;;;;13.23;8.07;;;;;;;17.50;31.98;103083.91;4969742;28;20035;-71
2024/01/11 01:03:37;;;;;;;14.82;8.38;;;;;;;17.50;31.99;103093.56;4968725;28;20031;-71
2024/01/11 01:06:03;;;;;;;12.98;7.70;;;;;;;17.47;31.73;103088.47;4969391;28;20093;-70
2024/01/11 01:08:28;;;;;;;13.10;8.27;;;;;;;17.48;32.00;103093.69;4970241;28;20117;-71
2024/01/11 01:10:54;;;;;;;13.50;8.38;;;;;;;17.46;31.94;103078.84;4969032;28;20039;-71
2024/01/11 01:13:19;;;;;;;15.10;7.97;;;;;;;17.44;32.02;103092.06;4969250;28;20133;-71
2024/01/11 01:15:44;;;;;;;14.43;8.50;;;;;;;17.43;31.71;103086.88;4969423;28;20039;-70
2024/01/11 01:18:10;;;;;;;15.70;8.32;;;;;;;17.47;31.78;103099.00;4969637;28;20034;-70
2024/01/11 01:20:35;;;;;;;14.68;8.70;;;;;;;17.38;31.60;103085.28;4969069;28;20027;-71
2024/01/11 01:23:01;;;;;;;11.52;7.85;;;;;;;17.37;31.69;103088.84;4969714;28;20042;-71
2024/01/11 01:25:26;;;;;;;12.23;8.20;;;;;;;17.37;31.58;103093.25;4969391;28;20026;-70
2024/01/11 01:27:52;;;;;;;12.45;7.95;;;;;;;17.28;31.95;103081.34;4969428;28;20369;-71
2024/01/11 01:30:17;;;;;;;14.93;8.77;;;;;;;17.44;31.81;103109.69;4969182;28;20054;-70
2024/01/11 01:32:43;;;;;;;10.93;7.88;;;;;;;17.43;32.02;103114.06;4969343;28;20452;-70
2024/01/11 01:35:08;;;;;;;14.85;8.70;;;;;;;17.37;32.02;103106.44;4969095;28;20033;-70
2024/01/11 01:37:33;;;;;;;12.05;7.78;;;;;;;17.43;31.88;103115.88;4969326;28;20031;-70
2024/01/11 01:39:58;;;;;;;14.77;7.90;;;;;;;17.27;32.08;103090.16;4968977;28;20031;-70
2024/01/11 01:42:24;;;;;;;11.70;8.32;;;;;;;17.33;31.80;103103.06;4968979;28;20760;-71
2024/01/11 01:44:49;;;;;;;14.07;8.10;;;;;;;17.37;31.83;103112.56;4968719;28;20034;-71
2024/01/11 01:47:16;;;;;;;13.43;8.05;;;;;;;17.32;31.57;103113.69;4968964;28;20059;-70
2024/01/11 01:49:43;;;;;;;13.13;7.70;;;;;;;17.33;31.90;103116.25;4968659;28;20472;-71
2024/01/11 01:52:09;;;;;;;13.68;8.25;;;;;;;17.33;32.05;103121.53;4968556;28;20065;-70
2024/01/11 01:54:34;;;;;;;13.00;8.00;;;;;;;17.37;31.98;103131.03;4967846;28;20511;-71
2024/01/11 01:57:01;;;;;;;13.15;8.73;;;;;;;17.39;31.76;103134.44;4966450;28;20158;-70
2024/01/11 01:59:27;;;;;;;13.40;8.25;;;;;;;17.30;32.07;103126.91;4968387;28;20035;-70
2024/01/11 02:01:53;;;;;;;15.52;9.15;;;;;;;17.32;32.12;103130.38;4967218;28;20074;-71
2024/01/11 02:04:19;;;;;;;14.05;8.07;;;;;;;17.38;31.75;103148.53;4967889;28;20038;-70
2024/01/11 02:06:46;;;;;;;12.38;8.15;;;;;;;17.34;31.98;103143.44;4966290;28;20399;-70
2024/01/11 02:09:13;;;;;;;13.88;8.45;;;;;;;17.38;31.76;103145.91;4967638;28;20035;-70
2024/01/11 02:11:39;;;;;;;13.80;8.40;;;;;;;17.37;32.03;103136.31;4968186;28;20047;-71
2024/01/11 02:14:04;;;;;;;15.07;8.85;;;;;;;17.36;31.88;103137.22;4968426;28;20226;-71
2024/01/11 02:16:30;;;;;;;13.15;8.05;;;;;;;17.35;31.65;103135.47;4968384;28;20035;-70
2024/01/11 02:18:55;;;;;;;13.25;8.73;;;;;;;17.36;31.57;103126.66;4968119;28;20034;-71
2024/01/11 02:21:23;;;;;;;12.43;7.93;;;;;;;17.29;31.63;103111.16;4968218;28;20038;-71
2024/01/11 02:24:14;;;;;;;15.60;8.45;;;;;;;17.34;31.89;103123.25;4968174;28;20104;-71
2024/01/11 02:27:00;;;;;;;13.35;8.57;;;;;;;17.21;31.83;103104.47;4964069;28;21157;-71
2024/01/11 02:29:26;;;;;;;15.13;8.75;;;;;;;17.34;31.75;103117.97;4968066;28;20118;-70
2024/01/11 02:31:52;;;;;;;12.98;7.57;;;;;;;17.26;31.86;103116.56;4966703;28;20666;-70
2024/01/11 02:34:18;;;;;;;15.82;8.43;;;;;;;17.23;31.95;103110.50;4967916;28;20042;-72
2024/01/11 02:36:43;;;;;;;13.40;8.30;;;;;;;17.28;31.58;103120.88;4968336;28;20034;-71
2024/01/11 02:39:10;;;;;;;13.18;8.50;;;;;;;17.23;31.83;103121.06;4968263;28;20039;-71
2024/01/11 02:41:37;;;;;;;13.25;7.47;;;;;;;17.31;31.78;103140.97;4967796;28;20423;-71
2024/01/11 02:44:02;;;;;;;14.45;8.27;;;;;;;17.32;31.58;103137.41;4967956;28;20086;-70
2024/01/11 02:46:27;;;;;;;13.20;8.30;;;;;;;17.31;31.41;103130.44;4967833;28;20108;-71
2024/01/11 02:48:53;;;;;;;14.23;8.27;;;;;;;17.28;31.81;103130.56;4968266;28;20559;-70
2024/01/11 02:51:18;;;;;;;12.60;7.95;;;;;;;17.23;31.58;103123.69;4967462;28;20086;-70
2024/01/11 02:53:43;;;;;;;14.95;7.95;;;;;;;17.22;31.87;103121.13;4967720;28;20046;-70
2024/01/11 02:56:08;;;;;;;13.25;8.55;;;;;;;17.27;31.58;103129.69;4967585;28;20034;-70
2024/01/11 02:58:34;;;;;;;12.95;8.00;;;;;;;17.26;31.52;103132.38;4967280;28;20031;-71
2024/01/11 03:00:59;;;;;;;14.18;8.20;;;;;;;17.29;31.59;103134.88;4966649;28;20035;-70
2024/01/11 03:03:24;;;;;;;15.68;9.07;;;;;;;17.19;31.71;103118.59;4966374;28;20034;-71
2024/01/11 03:05:50;;;;;;;13.80;8.20;;;;;;;17.28;31.82;103141.94;4966683;28;20042;-70
2024/01/11 03:08:15;;;;;;;11.38;7.60;;;;;;;17.27;31.47;103129.69;4966754;28;20059;-70
2024/01/11 03:10:40;;;;;;;13.23;7.68;;;;;;;17.23;31.52;103128.13;4967214;28;20038;-70
2024/01/11 03:13:07;;;;;;;13.82;8.00;;;;;;;17.25;31.59;103128.91;4967748;28;20104;-70
2024/01/11 03:15:33;;;;;;;12.10;8.13;;;;;;;17.23;31.80;103125.47;4967452;28;20045;-71
2024/01/11 03:17:58;;;;;;;15.98;8.07;;;;;;;17.21;31.83;103128.19;4966366;28;20046;-70
2024/01/11 03:20:24;;;;;;;13.70;8.02;;;;;;;17.11;31.61;103116.28;4967301;28;20072;-70
2024/01/11 03:22:51;;;;;;;13.07;8.20;;;;;;;17.23;31.54;103134.22;4967594;28;20062;-70
2024/01/11 03:25:16;;;;;;;12.27;7.75;;;;;;;17.22;31.73;103136.94;4967721;28;20119;-70
2024/01/11 03:27:42;;;;;;;11.18;8.02;;;;;;;17.20;31.67;103136.13;4967477;28;20125;-69
2024/01/11 03:30:07;;;;;;;14.07;7.43;;;;;;;17.21;31.87;103132.56;4967263;28;20504;-70
2024/01/11 03:32:33;;;;;;;13.20;7.90;;;;;;;17.21;31.70;103129.94;4967726;28;20046;-70
2024/01/11 03:34:58;;;;;;;12.10;8.50;;;;;;;17.16;31.33;103122.22;4967270;28;20531;-70
2024/01/11 03:37:23;;;;;;;15.07;8.23;;;;;;;17.19;31.49;103129.16;4967550;28;20034;-70
2024/01/11 03:39:48;;;;;;;12.80;7.95;;;;;;;17.11;31.38;103120.72;4967838;28;20488;-70
2024/01/11 03:42:14;;;;;;;13.48;8.52;;;;;;;17.18;31.49;103135.31;4967329;28;20035;-70
2024/01/11 03:44:39;;;;;;;13.00;7.72;;;;;;;17.10;31.46;103121.63;4967089;28;20396;-71
2024/01/11 03:47:04;;;;;;;15.70;8.18;;;;;;;17.18;31.58;103136.19;4967007;28;20054;-70
2024/01/11 03:49:30;;;;;;;13.20;8.13;;;;;;;17.08;31.56;103110.28;4967298;28;20027;-72
2024/01/11 03:51:55;;;;;;;12.20;8.18;;;;;;;17.16;31.80;103122.22;4966649;28;20121;-70
2024/01/11 03:54:20;;;;;;;15.82;8.52;;;;;;;17.14;31.46;103117.94;4966670;28;20092;-71
2024/01/11 03:56:46;;;;;;;12.93;8.27;;;;;;;17.14;31.53;103123.22;4967077;28;20035;-70
2024/01/11 03:59:11;;;;;;;13.20;8.38;;;;;;;17.13;31.26;103127.63;4965182;28;20273;-72
2024/01/11 04:01:41;;;;;;;14.10;8.10;;;;;;;17.13;31.38;103129.41;4966173;28;20039;-72
2024/01/11 04:04:06;;;;;;;12.88;8.80;;;;;;;17.11;31.54;103147.06;4965404;28;20034;-71
2024/01/11 04:06:31;;;;;;;16.08;8.23;;;;;;;17.06;31.34;103127.94;4966678;28;20043;-71
2024/01/11 04:08:57;;;;;;;15.50;8.43;;;;;;;17.11;31.65;103133.88;4966368;28;20496;-72
2024/01/11 04:11:22;;;;;;;15.02;7.88;;;;;;;17.01;31.68;103115.81;4966942;28;21436;-71
2024/01/11 04:13:47;;;;;;;14.43;8.30;;;;;;;17.11;31.29;103128.59;4966921;28;20042;-71
2024/01/11 04:16:13;;;;;;;14.25;8.68;;;;;;;17.00;31.54;103108.81;4967334;28;20046;-72
2024/01/11 04:18:38;;;;;;;13.88;8.60;;;;;;;17.07;31.29;103135.78;4969252;28;20043;-71
2024/01/11 04:21:04;;;;;;;16.77;8.85;;;;;;;17.10;31.33;103148.84;4970490;28;20479;-71
2024/01/11 04:23:29;;;;;;;14.52;8.40;;;;;;;17.02;31.67;103148.25;4970505;28;20035;-71
2024/01/11 04:25:54;;;;;;;13.13;8.02;;;;;;;17.07;31.27;103172.69;4970494;28;20097;-71
2024/01/11 04:28:20;;;;;;;11.98;8.02;;;;;;;17.09;31.61;103172.63;4970449;28;20027;-71
2024/01/11 04:30:45;;;;;;;14.52;8.38;;;;;;;16.98;31.28;103159.88;4970382;28;20113;-71
2024/01/11 04:33:10;;;;;;;13.43;8.48;;;;;;;16.99;31.72;103151.03;4970096;28;20046;-71
2024/01/11 04:35:36;;;;;;;14.15;9.02;;;;;;;17.07;31.22;103169.16;4970432;28;20081;-70
2024/01/11 04:38:02;;;;;;;13.80;8.10;;;;;;;17.02;31.54;103167.59;4970055;28;20039;-71
2024/01/11 04:40:27;;;;;;;12.93;8.35;;;;;;;17.06;31.46;103188.53;4970453;28;20042;-71
2024/01/11 04:42:52;;;;;;;14.13;8.25;;;;;;;16.98;31.58;103176.50;4969592;28;20049;-71
2024/01/11 04:45:18;;;;;;;13.18;8.32;;;;;;;16.99;31.66;103169.47;4969671;28;20464;-72
2024/01/11 04:47:43;;;;;;;14.13;8.57;;;;;;;17.06;31.24;103193.81;4967441;28;20042;-70
2024/01/11 04:50:09;;;;;;;14.63;8.43;;;;;;;17.02;31.40;103185.16;4969206;28;20037;-70
2024/01/11 04:52:34;;;;;;;13.98;8.18;;;;;;;17.04;31.55;103181.53;4969078;28;20031;-70
2024/01/11 04:54:59;;;;;;;16.42;8.70;;;;;;;16.94;31.64;103159.13;4969467;28;20129;-71
2024/01/11 04:57:24;;;;;;;13.10;8.45;;;;;;;16.99;31.43;103167.69;4969869;28;20031;-70
2024/01/11 04:59:50;;;;;;;12.88;8.55;;;;;;;16.96;31.23;103165.19;4969988;28;20121;-71
2024/01/11 05:02:15;;;;;;;13.80;8.75;;;;;;;16.98;31.59;103165.13;4969113;28;20027;-70
2024/01/11 05:04:40;;;;;;;15.37;8.40;;;;;;;16.98;31.05;103167.75;4969949;28;20106;-71
2024/01/11 05:07:06;;;;;;;14.68;8.27;;;;;;;17.01;31.69;103181.66;4969671;28;20316;-70
2024/01/11 05:09:31;;;;;;;14.02;8.35;;;;;;;17.04;31.32;103183.34;4969714;28;20089;-71
2024/01/11 05:11:56;;;;;;;15.57;8.57;;;;;;;16.99;31.35;103174.72;4969562;28;20058;-71
2024/01/11 05:14:22;;;;;;;13.27;8.38;;;;;;;16.97;31.40;103166.91;4969959;28;20062;-70
2024/01/11 05:16:47;;;;;;;14.45;8.65;;;;;;;17.01;31.64;103184.28;4969339;28;20447;-71
2024/01/11 05:19:12;;;;;;;14.45;8.23;;;;;;;16.98;31.53;103181.78;4969435;28;20038;-71
2024/01/11 05:21:37;;;;;;;16.27;8.95;;;;;;;17.01;31.57;103186.94;4969532;28;20097;-71
2024/01/11 05:24:03;;;;;;;15.50;8.68;;;;;;;16.92;31.40;103175.91;4969341;28;20381;-71
2024/01/11 05:26:28;;;;;;;14.15;8.30;;;;;;;16.92;31.45;103175.91;4969329;28;20041;-71
2024/01/11 05:28:53;;;;;;;11.83;7.70;;;;;;;16.73;31.81;103154.66;4968545;28;20043;-71
2024/01/11 05:31:19;;;;;;;12.00;7.85;;;;;;;16.94;31.75;103181.97;4968230;28;20312;-71
2024/01/11 05:33:45;;;;;;;13.05;7.97;;;;;;;17.04;32.32;103199.13;4967999;28;20447;-72
2024/01/11 05:36:11;;;;;;;12.80;7.32;;;;;;;17.01;32.78;103196.63;4968836;28;20038;-70
2024/01/11 05:38:38;;;;;;;12.98;7.55;;;;;;;17.12;32.90;103210.22;4968569;28;20038;-70
2024/01/11 05:41:04;;;;;;;16.90;7.20;;;;;;;17.07;33.26;103204.28;4968234;28;20031;-72
2024/01/11 05:43:29;;;;;;;13.27;7.10;;;;;;;17.21;33.36;103227.44;4969117;28;20035;-70
2024/01/11 05:45:54;;;;;;;13.25;7.25;;;;;;;17.16;33.35;103205.69;4968731;28;20526;-71
2024/01/11 05:48:19;;;;;;;12.52;6.57;;;;;;;17.26;33.61;103243.06;4968854;28;20046;-70
2024/01/11 05:50:45;;;;;;;12.45;6.43;;;;;;;17.28;33.24;103233.34;4967771;28;20555;-70
2024/01/11 05:53:12;;;;;;;11.65;6.53;;;;;;;17.34;33.71;103235.72;4968813;28;20035;-71
2024/01/11 05:55:37;;;;;;;11.00;5.78;;;;;;;17.36;33.66;103224.19;4968910;28;20139;-70
2024/01/11 05:58:03;;;;;;;11.70;6.93;;;;;;;17.40;33.50;103217.88;4968724;28;20121;-70
2024/01/11 06:00:28;;;;;;;15.85;7.28;;;;;;;17.40;33.47;103209.97;4966763;28;20058;-71
2024/01/11 06:02:53;;;;;;;12.30;6.18;;;;;;;17.43;33.70;103214.25;4967526;28;20451;-70
2024/01/11 06:05:18;;;;;;;9.63;6.20;;;;;;;17.37;33.69;103204.84;4968490;28;20063;-70
2024/01/11 06:07:44;;;;;;;10.25;6.00;;;;;;;17.47;33.58;103209.72;4967347;28;20492;-70
2024/01/11 06:10:09;;;;;;;13.68;6.43;;;;;;;17.38;33.46;103211.81;4968513;28;20089;-70
2024/01/11 06:12:35;;;;;;;12.05;6.18;;;;;;;17.50;33.35;103228.91;4967977;28;20042;-70
2024/01/11 06:15:01;;;;;;;13.25;6.68;;;;;;;17.52;33.36;103236.75;4967760;28;20034;-70
2024/01/11 06:17:26;;;;;;;10.60;6.72;;;;;;;17.53;33.50;103241.09;4967699;28;20472;-69
2024/01/11 06:19:51;;;;;;;11.27;6.75;;;;;;;17.47;33.62;103254.56;4968034;28;20116;-69
2024/01/11 06:22:17;;;;;;;11.15;6.70;;;;;;;17.45;33.51;103249.34;4967744;28;20054;-69
2024/01/11 06:24:42;;;;;;;8.98;6.22;;;;;;;17.54;33.52;103259.47;4968005;28;20031;-70
2024/01/11 06:27:07;;;;;;;11.45;6.10;;;;;;;17.48;33.52;103241.31;4967964;28;20037;-70
2024/01/11 06:29:33;;;;;;;10.73;6.13;;;;;;;17.49;33.29;103236.88;4968604;28;20039;-70
2024/01/11 06:31:58;;;;;;;10.73;6.25;;;;;;;17.48;33.21;103228.13;4968079;28;20042;-70
2024/01/11 06:34:23;;;;;;;10.70;6.22;;;;;;;17.56;33.04;103243.59;4968079;28;20030;-70
2024/01/11 06:36:48;;;;;;;11.10;5.75;;;;;;;17.52;33.52;103250.78;4968087;28;20034;-70
2024/01/11 06:39:14;;;;;;;11.40;5.72;;;;;;;17.58;33.06;103258.44;4967759;28;20035;-70
2024/01/11 06:41:39;;;;;;;11.35;6.88;;;;;;;17.48;32.79;103228.13;4967154;28;20039;-70
2024/01/11 06:44:04;;;;;;;10.73;6.38;;;;;;;17.48;33.10;103219.34;4968178;28;20027;-69
2024/01/11 06:46:30;;;;;;;14.35;6.53;;;;;;;17.52;32.92;103227.06;4967515;28;20456;-71
2024/01/11 06:48:56;;;;;;;9.77;5.72;;;;;;;17.56;33.18;103235.69;4967931;28;20057;-70
2024/01/11 06:51:22;;;;;;;10.38;6.35;;;;;;;17.50;33.14;103238.56;4967468;28;20058;-70
2024/01/11 06:53:47;;;;;;;12.52;6.45;;;;;;;17.49;33.04;103239.53;4966494;28;20381;-70
2024/01/11 06:56:16;;;;;;;10.68;6.38;;;;;;;17.57;33.15;103253.25;4967761;28;20122;-70
2024/01/11 06:58:43;;;;;;;10.20;5.85;;;;;;;17.56;33.04;103252.41;4967792;28;20388;-70
2024/01/11 07:01:09;;;;;;;11.02;6.43;;;;;;;17.56;33.18;103254.16;4967689;28;20074;-71
2024/01/11 07:03:34;;;;;;;10.27;5.88;;;;;;;17.58;33.00;103268.16;4966208;28;20066;-71
2024/01/11 07:05:59;;;;;;;12.20;6.38;;;;;;;17.52;32.85;103261.34;4967802;28;20035;-71
2024/01/11 07:08:25;;;;;;;11.15;6.05;;;;;;;17.59;33.03;103265.44;4967522;28;20094;-71
2024/01/11 07:10:50;;;;;;;11.60;5.85;;;;;;;17.52;33.27;103255.22;4967701;28;20503;-71
2024/01/11 07:13:16;;;;;;;10.13;5.97;;;;;;;17.51;32.92;103249.06;4967278;28;20145;-70
2024/01/11 07:15:42;;;;;;;11.60;6.75;;;;;;;17.58;32.89;103266.38;4981472;28;20038;-70
2024/01/11 07:18:08;;;;;;;12.00;6.28;;;;;;;17.59;33.01;103275.13;4967027;28;20022;-70
2024/01/11 07:20:33;;;;;;;10.93;6.30;;;;;;;17.57;32.76;103276.97;4966815;28;21178;-71
2024/01/11 07:22:59;;;;;;;12.00;6.68;;;;;;;17.62;32.62;103287.34;4966678;28;20038;-71
2024/01/11 07:25:25;;;;;;;12.27;6.65;;;;;;;17.63;32.75;103289.91;4966897;28;20045;-71
2024/01/11 07:27:50;;;;;;;10.40;6.55;;;;;;;17.56;32.83;103268.22;4967710;28;20042;-71
2024/01/11 07:30:15;;;;;;;10.40;6.65;;;;;;;17.56;32.86;103272.59;4967565;28;20087;-71
2024/01/11 07:32:41;;;;;;;14.32;6.32;;;;;;;17.56;33.07;103268.22;4967450;28;20035;-72
2024/01/11 07:35:06;;;;;;;9.75;6.38;;;;;;;17.64;32.90;103278.47;4967539;28;20035;-71
2024/01/11 07:37:32;;;;;;;13.32;6.68;;;;;;;17.55;32.92;103277.03;4967357;28;20035;-71
2024/01/11 07:39:57;;;;;;;10.07;6.32;;;;;;;17.62;32.83;103290.81;4967413;28;20395;-71
2024/01/11 07:42:22;;;;;;;11.50;6.43;;;;;;;17.65;33.08;103288.06;4967519;28;20129;-70
2024/01/11 07:44:48;;;;;;;11.32;5.72;;;;;;;17.55;32.76;103276.19;4967226;28;20043;-69
2024/01/11 07:47:13;;;;;;;13.13;6.57;;;;;;;17.65;33.22;103282.78;4967207;28;20398;-70
2024/01/11 07:49:38;;;;;;;11.40;5.97;;;;;;;17.55;32.63;103258.56;4967230;28;20495;-72
2024/01/11 07:52:04;;;;;;;11.82;6.43;;;;;;;17.51;32.63;103242.94;4966895;28;20109;-71
2024/01/11 07:54:31;;;;;;;11.40;6.43;;;;;;;17.65;32.64;103280.16;4970858;28;20077;-71
2024/01/11 07:56:56;;;;;;;10.18;6.22;;;;;;;17.57;32.83;103276.97;4971229;28;20093;-71
2024/01/11 07:59:21;;;;;;;13.13;6.20;;;;;;;17.54;33.00;103277.09;4971095;28;20023;-70
2024/01/11 08:01:48;;;;;;;14.13;6.50;;;;;;;17.56;33.03;103278.75;4970181;28;20058;-72
2024/01/11 08:04:13;;;;;;;11.68;5.93;;;;;;;17.58;33.20;103289.25;4970937;28;20074;-71
2024/01/11 08:06:39;;;;;;;11.35;6.13;;;;;;;17.62;33.23;103297.88;4970976;28;20031;-71
2024/01/11 08:09:04;;;;;;;10.27;6.20;;;;;;;17.61;33.70;103286.50;4971184;28;20039;-72
2024/01/11 08:11:31;;;;;;;9.95;5.85;;;;;;;17.65;33.60;103288.06;4970600;28;20045;-71
2024/01/11 08:13:56;;;;;;;10.73;6.00;;;;;;;17.57;33.91;103274.34;4970762;28;20484;-72
2024/01/11 08:16:22;;;;;;;10.15;6.40;;;;;;;17.62;34.04;103284.69;4970705;28;20544;-73
2024/01/11 08:18:48;;;;;;;11.70;5.68;;;;;;;17.58;34.19;103261.09;4969646;28;20034;-70
2024/01/11 08:21:14;;;;;;;9.75;5.47;;;;;;;17.57;34.14;103256.72;4970709;28;20078;-70
2024/01/11 08:23:44;;;;;;;11.95;5.75;;;;;;;17.63;34.19;103258.28;4969274;28;20435;-70
2024/01/11 08:26:12;;;;;;;10.93;5.68;;;;;;;17.71;34.27;103261.44;4970252;28;20161;-70
2024/01/11 08:28:37;;;;;;;11.82;6.22;;;;;;;17.71;34.65;103258.81;4970013;28;20396;-71
2024/01/11 08:31:04;;;;;;;11.77;5.20;;;;;;;17.61;34.84;103241.66;4969628;28;20042;-71
2024/01/11 08:33:30;;;;;;;13.18;6.10;;;;;;;17.61;34.53;103244.28;4969422;28;20070;-70
2024/01/11 08:35:55;;;;;;;10.70;6.15;;;;;;;17.66;34.50;103254.66;4969948;28;20030;-70
2024/01/11 08:38:20;;;;;;;9.82;5.88;;;;;;;17.76;34.63;103275.28;4969768;28;20073;-70
2024/01/11 08:40:46;;;;;;;10.75;5.28;;;;;;;17.72;34.39;103273.72;4969272;28;20027;-71
2024/01/11 08:43:11;;;;;;;8.80;4.95;;;;;;;17.79;34.87;103281.38;4969597;28;20089;-71
2024/01/11 08:45:36;;;;;;;10.15;5.63;;;;;;;17.74;34.67;103279.78;4969954;28;21222;-72
2024/01/11 08:48:01;;;;;;;10.02;5.40;;;;;;;17.74;34.98;103273.66;4969590;28;20058;-71
2024/01/11 08:50:27;;;;;;;9.63;5.50;;;;;;;17.70;34.73;103261.50;4969628;28;20037;-71
2024/01/11 08:52:55;;;;;;;13.18;5.95;;;;;;;17.71;34.69;103258.81;4969062;28;20042;-71
2024/01/11 08:55:20;;;;;;;9.13;5.60;;;;;;;17.70;34.88;103257.06;4967734;28;20162;-70
2024/01/11 08:57:45;;;;;;;9.07;5.18;;;;;;;17.70;34.82;103267.63;4969270;28;20114;-70
2024/01/11 09:00:11;;;;;;;11.10;5.30;;;;;;;17.74;34.94;103273.66;4970034;28;20467;-70
2024/01/11 09:02:37;;;;;;;9.82;5.82;;;;;;;17.86;35.06;103303.94;4968737;28;20287;-71
2024/01/11 09:05:04;;;;;;;10.05;5.88;;;;;;;17.84;34.92;103305.78;4969154;28;20034;-71
2024/01/11 09:07:30;;;;;;;11.15;5.40;;;;;;;17.84;35.23;103311.06;4969903;28;20031;-71
2024/01/11 09:09:55;;;;;;;11.07;5.85;;;;;;;17.84;35.55;103313.69;4969613;28;20046;-70
2024/01/11 09:12:21;;;;;;;10.95;5.40;;;;;;;17.85;34.93;103311.00;4967886;28;20041;-70
2024/01/11 09:14:47;;;;;;;13.45;5.50;;;;;;;17.84;35.00;103314.53;4969444;28;20094;-70
2024/01/11 09:17:12;;;;;;;9.95;5.45;;;;;;;17.79;34.89;103303.34;4969356;28;20528;-70
2024/01/11 09:19:39;;;;;;;11.98;5.20;;;;;;;17.81;35.06;103306.75;4969154;28;20041;-71
2024/01/11 09:22:05;;;;;;;9.30;4.85;;;;;;;17.84;35.51;103314.53;4969438;28;20062;-71
2024/01/11 09:24:30;;;;;;;10.32;5.65;;;;;;;17.87;35.19;103321.50;4969795;28;20031;-70
2024/01/11 09:26:55;;;;;;;8.60;4.75;;;;;;;17.79;35.28;103302.47;4969689;28;20074;-70
2024/01/11 09:29:21;;;;;;;9.73;4.88;;;;;;;17.82;34.96;103313.75;4969481;28;20035;-71
2024/01/11 09:31:46;;;;;;;10.38;5.28;;;;;;;17.81;34.80;103309.41;4968345;28;20490;-70
2024/01/11 09:34:12;;;;;;;8.85;5.40;;;;;;;17.78;34.60;103312.16;4969325;28;20045;-71
2024/01/11 09:36:39;;;;;;;8.85;5.10;;;;;;;17.79;34.87;103311.25;4969567;28;20046;-70
2024/01/11 09:39:05;;;;;;;8.20;5.07;;;;;;;17.80;34.72;103317.38;4968983;28;20507;-71
2024/01/11 09:41:31;;;;;;;8.80;5.55;;;;;;;17.88;34.68;103341.69;4969239;28;20019;-72
2024/01/11 09:44:00;;;;;;;10.32;5.88;;;;;;;17.83;34.59;103339.22;4968986;28;20033;-71
2024/01/11 09:46:26;;;;;;;9.38;5.30;;;;;;;17.87;34.41;103343.44;4968984;28;20057;-71
2024/01/11 09:48:55;;;;;;;9.65;5.65;;;;;;;17.80;34.67;103333.19;4969066;28;20030;-70
2024/01/11 09:51:20;;;;;;;10.23;5.30;;;;;;;17.89;34.55;103353.97;4969313;28;20038;-70
2024/01/11 09:53:50;;;;;;;8.40;5.25;;;;;;;17.87;34.16;103353.16;4968755;28;20400;-70
2024/01/11 09:56:16;;;;;;;9.13;5.15;;;;;;;17.81;34.72;103353.38;4969116;28;20158;-70
2024/01/11 09:58:48;;;;;;;9.95;5.03;;;;;;;17.79;34.81;103348.16;4969033;28;20113;-71
2024/01/11 10:01:13;;;;;;;11.07;5.07;;;;;;;17.82;34.77;103358.59;4969199;28;20053;-70
2024/01/11 10:03:40;;;;;;;11.48;5.55;;;;;;;17.88;34.36;103363.66;4967976;28;20042;-69
2024/01/11 10:06:07;;;;;;;8.55;5.25;;;;;;;17.85;34.49;103358.47;4969000;28;20113;-70
2024/01/11 10:08:32;;;;;;;11.07;5.85;;;;;;;17.67;34.53;103330.19;4968845;28;20033;-70
2024/01/11 10:10:57;;;;;;;10.63;5.13;;;;;;;17.90;34.48;103364.44;4968821;28;20039;-71
2024/01/11 10:13:28;;;;;;;11.45;5.85;;;;;;;17.84;34.59;103351.47;4968504;28;20124;-71
2024/01/11 10:16:05;;;;;;;9.55;4.90;;;;;;;17.90;34.66;103367.09;4968008;28;20046;-70
2024/01/11 10:18:30;;;;;;;11.50;6.18;;;;;;;17.83;34.79;103352.41;4968916;28;20089;-70
2024/01/11 10:20:57;;;;;;;9.10;5.47;;;;;;;17.92;34.81;103367.88;4969207;28;20468;-69
2024/01/11 10:23:23;;;;;;;11.40;5.13;;;;;;;17.84;34.48;103353.25;4968984;28;20281;-70
2024/01/11 10:25:48;;;;;;;10.52;5.57;;;;;;;17.91;34.59;103376.72;4967832;28;20061;-71
2024/01/11 10:28:14;;;;;;;8.55;5.07;;;;;;;17.93;34.86;103377.53;4967939;28;20035;-71
2024/01/11 10:30:40;;;;;;;9.07;5.07;;;;;;;17.94;34.31;103370.47;4967785;28;20031;-71
2024/01/11 10:33:07;;;;;;;8.70;5.78;;;;;;;17.88;34.49;103366.31;4968034;28;20034;-69
2024/01/11 10:35:32;;;;;;;11.98;5.78;;;;;;;17.86;34.58;103354.06;4967603;28;20027;-70
2024/01/11 10:37:58;;;;;;;10.35;5.43;;;;;;;17.94;34.54;103367.81;4967326;28;20435;-71
2024/01/11 10:40:25;;;;;;;9.32;5.00;;;;;;;17.89;34.73;103356.59;4967482;28;20065;-70
2024/01/11 10:42:52;;;;;;;10.90;5.20;;;;;;;17.97;34.64;103372.97;4967634;28;20034;-72
2024/01/11 10:45:19;;;;;;;10.48;5.55;;;;;;;17.97;34.72;103383.53;4968779;28;20411;-70
2024/01/11 10:47:53;;;;;;;9.35;5.03;;;;;;;17.96;34.83;103384.47;4968505;28;20042;-70
2024/01/11 10:50:19;;;;;;;10.73;5.18;;;;;;;17.97;34.70;103374.75;4968513;28;20050;-70
2024/01/11 10:52:54;;;;;;;10.68;4.97;;;;;;;18.00;34.88;103377.28;4968390;28;20039;-70
2024/01/11 10:55:20;;;;;;;8.80;4.97;;;;;;;17.94;34.86;103367.81;4968818;28;20026;-70
2024/01/11 10:57:48;;;;;;;9.75;5.30;;;;;;;17.92;34.94;103365.25;4968914;28;21401;-71
2024/01/11 11:00:14;;;;;;;10.88;5.20;;;;;;;17.99;34.84;103365.88;4968583;28;20062;-70
2024/01/11 11:02:41;;;;;;;11.98;5.00;;;;;;;18.02;34.57;103373.63;4967667;28;20031;-71
2024/01/11 11:05:09;;;;;;;13.80;5.68;;;;;;;17.97;34.84;103361.56;4967810;28;20408;-70
2024/01/11 11:07:35;;;;;;;9.65;4.97;;;;;;;17.94;34.87;103351.97;4968426;28;20034;-70
2024/01/11 11:10:04;;;;;;;11.02;5.22;;;;;;;18.05;34.79;103370.88;4968110;28;20468;-70
2024/01/11 11:12:32;;;;;;;11.50;5.28;;;;;;;17.96;34.35;103355.44;4968005;28;20038;-70